Time;durP1;ratioP1;P1;durP2;ratioP2;P2;SDS_P1;SDS_P2;PMS_P1;PMS_P2;Temp;Humidity;BMP_temperature;BMP_pressure;BME280_temperature;BME280_humidity;BME280_pressure;Samples;Min_cycle;Max_cycle;Signal;HPM_P1;HPM_P2
2022/12/10 00:01:41;;;;;;;6.82;3.97;;;-0.40;99.90;;;;;;5049008;28;20064;-62
2022/12/10 00:04:11;;;;;;;7.88;3.88;;;-0.40;99.90;;;;;;5067819;28;20051;-62
2022/12/10 00:06:39;;;;;;;5.22;3.35;;;-0.40;99.90;;;;;;5061975;28;20060;-60
2022/12/10 00:09:11;;;;;;;6.07;4.13;;;-0.30;99.90;;;;;;5064032;28;20047;-60
2022/12/10 00:11:40;;;;;;;8.30;4.55;;;-0.30;99.90;;;;;;5057470;28;20044;-60
2022/12/10 00:14:10;;;;;;;16.40;5.75;;;-0.30;99.90;;;;;;5064783;28;20060;-61
2022/12/10 00:16:38;;;;;;;;;;;-0.30;99.90;;;;;;5054058;28;20492;-61
2022/12/10 00:19:09;;;;;;;10.90;4.57;;;-0.40;99.90;;;;;;5060268;28;19936;-60
2022/12/10 00:21:40;;;;;;;7.80;4.50;;;-0.40;99.90;;;;;;5071115;28;20424;-60
2022/12/10 00:24:11;;;;;;;8.07;4.35;;;-0.40;99.90;;;;;;5069334;28;20514;-59
2022/12/10 00:26:39;;;;;;;6.32;3.97;;;-0.50;99.90;;;;;;5070325;28;20063;-61
2022/12/10 00:29:11;;;;;;;7.90;4.10;;;-0.50;99.90;;;;;;5062769;28;20045;-60
2022/12/10 00:31:39;;;;;;;9.80;4.65;;;-0.60;99.90;;;;;;5070648;28;20059;-60
2022/12/10 00:34:09;;;;;;;9.27;5.75;;;-0.60;99.90;;;;;;5061618;28;20045;-61
2022/12/10 00:36:47;;;;;;;13.02;4.95;;;-0.60;99.90;;;;;;5068933;28;20041;-60
2022/12/10 00:39:19;;;;;;;10.07;5.70;;;-0.60;99.90;;;;;;5061887;28;20055;-60
2022/12/10 00:41:49;;;;;;;13.32;6.88;;;-0.60;99.90;;;;;;5070624;28;20041;-59
2022/12/10 00:44:17;;;;;;;13.50;7.05;;;-0.60;99.90;;;;;;5065173;28;20053;-59
2022/12/10 00:46:45;;;;;;;16.85;6.70;;;-0.60;99.90;;;;;;5070504;28;20044;-60
2022/12/10 00:49:13;;;;;;;14.05;6.32;;;-0.50;99.90;;;;;;5056497;28;20056;-59
2022/12/10 00:51:41;;;;;;;15.18;6.32;;;-0.50;99.90;;;;;;5049786;28;20510;-60
2022/12/10 00:54:11;;;;;;;8.73;5.65;;;-0.50;99.90;;;;;;5062530;28;20047;-60
2022/12/10 00:56:39;;;;;;;11.88;6.05;;;-0.40;99.90;;;;;;5056089;28;20060;-61
2022/12/10 00:59:08;;;;;;;9.85;5.75;;;-0.40;99.90;;;;;;5062404;28;20048;-61
2022/12/10 01:01:41;;;;;;;16.08;5.93;;;-0.30;99.90;;;;;;5062934;28;20053;-60
2022/12/10 01:04:15;;;;;;;11.90;6.18;;;-0.20;99.90;;;;;;5063175;28;20518;-61
2022/12/10 01:06:44;;;;;;;12.35;6.32;;;-0.20;99.90;;;;;;5062215;28;20492;-60
2022/12/10 01:09:15;;;;;;;10.35;5.72;;;-0.20;99.90;;;;;;5069830;28;20048;-61
2022/12/10 01:11:45;;;;;;;14.38;6.10;;;-0.20;99.90;;;;;;5068744;28;20044;-60
2022/12/10 01:14:17;;;;;;;13.43;5.95;;;-0.20;99.90;;;;;;5063719;28;20055;-62
2022/12/10 01:16:48;;;;;;;12.93;6.20;;;-0.20;99.90;;;;;;5053029;28;20404;-60
2022/12/10 01:19:16;;;;;;;10.52;5.55;;;-0.20;99.90;;;;;;5066515;28;20480;-59
2022/12/10 01:21:44;;;;;;;8.90;4.78;;;-0.20;99.90;;;;;;5068011;28;20056;-61
2022/12/10 01:24:12;;;;;;;9.98;5.93;;;-0.10;99.90;;;;;;5067298;28;20044;-61
2022/12/10 01:26:39;;;;;;;14.32;6.20;;;-0.10;99.90;;;;;;5066542;28;20048;-61
2022/12/10 01:29:07;;;;;;;14.10;5.40;;;-0.10;99.90;;;;;;5064354;28;20045;-61
2022/12/10 01:31:36;;;;;;;12.25;6.40;;;0.00;99.90;;;;;;5058528;28;20040;-61
2022/12/10 01:34:07;;;;;;;10.25;5.38;;;0.00;99.90;;;;;;5064394;28;20040;-62
2022/12/10 01:36:44;;;;;;;8.80;5.15;;;0.00;99.90;;;;;;5049585;28;20127;-60
2022/12/10 01:39:14;;;;;;;20.02;5.88;;;0.00;99.90;;;;;;5059575;28;20044;-62
2022/12/10 01:41:48;;;;;;;9.52;4.80;;;0.00;99.90;;;;;;5069373;28;20047;-62
2022/12/10 01:44:17;;;;;;;8.65;4.82;;;0.00;99.90;;;;;;5066519;28;20051;-61
2022/12/10 01:46:47;;;;;;;8.85;4.47;;;0.00;99.90;;;;;;5068046;28;20060;-60
2022/12/10 01:49:18;;;;;;;9.65;4.50;;;0.10;99.90;;;;;;5065384;28;20047;-61
2022/12/10 01:51:49;;;;;;;8.68;4.45;;;0.10;99.90;;;;;;5051849;28;20517;-60
2022/12/10 01:54:29;;;;;;;11.00;4.55;;;0.10;99.90;;;;;;5068270;28;20045;-62
2022/12/10 01:57:13;;;;;;;6.47;3.88;;;0.10;99.90;;;;;;5062635;28;20052;-60
2022/12/10 01:59:44;;;;;;;10.15;4.60;;;0.10;99.90;;;;;;5054765;28;20044;-61
2022/12/10 02:02:40;;;;;;;7.40;4.28;;;0.10;99.90;;;;;;5048688;28;20045;-62
2022/12/10 02:05:26;;;;;;;7.70;4.35;;;0.10;99.90;;;;;;5052493;28;20063;-61
2022/12/10 02:08:12;;;;;;;9.90;4.28;;;0.00;99.90;;;;;;5050531;28;20041;-61
2022/12/10 02:10:40;;;;;;;9.77;3.97;;;0.00;99.90;;;;;;5051746;28;20063;-62
2022/12/10 02:13:24;;;;;;;8.55;3.70;;;0.00;99.90;;;;;;5065618;28;20286;-60
2022/12/10 02:16:00;;;;;;;6.05;3.97;;;0.00;99.90;;;;;;5057922;28;20044;-62
2022/12/10 02:18:42;;;;;;;10.00;4.72;;;-0.10;99.90;;;;;;5065735;28;20040;-62
2022/12/10 02:21:21;;;;;;;11.13;4.57;;;-0.10;99.90;;;;;;5067791;28;20040;-60
2022/12/10 02:23:57;;;;;;;9.80;4.40;;;-0.20;99.90;;;;;;5067286;28;20516;-61
2022/12/10 02:26:28;;;;;;;7.32;3.90;;;-0.20;99.90;;;;;;5064896;28;20040;-62
2022/12/10 02:29:19;;;;;;;7.15;4.32;;;-0.20;99.90;;;;;;5065364;28;20083;-63
2022/12/10 02:32:02;;;;;;;9.50;4.28;;;-0.30;99.90;;;;;;5058325;28;20056;-62
2022/12/10 02:34:40;;;;;;;7.93;4.00;;;-0.30;99.90;;;;;;5065088;28;20497;-61
2022/12/10 02:37:21;;;;;;;8.25;3.95;;;-0.40;99.90;;;;;;5056017;28;20053;-62
2022/12/10 02:39:57;;;;;;;6.85;3.42;;;-0.40;99.90;;;;;;5066378;28;20052;-62
2022/12/10 02:42:30;;;;;;;8.00;3.70;;;-0.50;99.90;;;;;;5050376;28;20512;-62
2022/12/10 02:44:59;;;;;;;4.15;2.78;;;-0.50;99.90;;;;;;5050262;28;20056;-62
2022/12/10 02:47:27;;;;;;;9.40;3.05;;;-0.50;99.90;;;;;;5059433;28;20067;-60
2022/12/10 02:49:57;;;;;;;7.43;2.67;;;-0.60;99.90;;;;;;5070176;28;20045;-61
2022/12/10 02:52:28;;;;;;;7.20;3.80;;;-0.50;99.90;;;;;;5070533;28;20044;-61
2022/12/10 02:54:56;;;;;;;9.73;4.43;;;-0.50;99.90;;;;;;5066967;28;20056;-59
2022/12/10 02:57:42;;;;;;;7.53;3.50;;;-0.50;99.90;;;;;;5064237;28;20055;-60
2022/12/10 03:00:16;;;;;;;5.93;3.08;;;-0.60;99.90;;;;;;5062782;28;20044;-61
2022/12/10 03:03:10;;;;;;;7.60;3.17;;;-0.60;99.90;;;;;;5068332;28;20040;-60
2022/12/10 03:06:32;;;;;;;5.40;3.20;;;-0.60;99.90;;;;;;5071187;28;20059;-59
2022/12/10 03:09:12;;;;;;;8.32;3.28;;;-0.60;99.90;;;;;;5066615;28;20052;-60
2022/12/10 03:12:06;;;;;;;9.25;3.13;;;-0.70;99.90;;;;;;5052856;28;20060;-59
2022/12/10 03:14:35;;;;;;;6.13;3.30;;;-0.70;99.90;;;;;;5049478;28;20037;-60
2022/12/10 03:17:04;;;;;;;6.95;3.88;;;-0.80;99.90;;;;;;5049547;28;20404;-61
2022/12/10 03:19:44;;;;;;;10.63;3.63;;;-0.80;99.90;;;;;;5050986;28;20507;-60
2022/12/10 03:22:14;;;;;;;8.65;3.28;;;-0.80;99.90;;;;;;5051201;28;20048;-60
2022/12/10 03:24:43;;;;;;;8.90;3.75;;;-0.90;99.90;;;;;;5068395;28;20048;-59
2022/12/10 03:27:12;;;;;;;8.55;3.55;;;-0.80;99.90;;;;;;5064482;28;20060;-59
2022/12/10 03:29:46;;;;;;;6.65;3.80;;;-0.70;99.90;;;;;;5051201;28;20060;-59
2022/12/10 03:32:16;;;;;;;7.78;3.25;;;-0.70;99.90;;;;;;5054370;28;20045;-59
2022/12/10 03:34:44;;;;;;;;;;;-0.60;99.90;;;;;;5051490;28;20496;-60
2022/12/10 03:37:13;;;;;;;9.93;2.92;;;-0.60;99.90;;;;;;5070907;28;20291;-60
2022/12/10 03:39:42;;;;;;;7.10;4.07;;;-0.60;99.90;;;;;;5056692;28;20049;-61
2022/12/10 03:42:17;;;;;;;11.43;3.13;;;-0.60;99.90;;;;;;5051219;28;20053;-60
2022/12/10 03:44:45;;;;;;;6.47;2.65;;;-0.50;99.90;;;;;;5050979;28;20053;-61
2022/12/10 03:47:14;;;;;;;8.38;2.88;;;-0.50;99.90;;;;;;5057507;28;20049;-58
2022/12/10 03:49:43;;;;;;;7.43;3.00;;;-0.50;99.90;;;;;;5070879;28;20045;-59
2022/12/10 03:52:14;;;;;;;8.93;3.78;;;-0.50;99.90;;;;;;5051394;28;20044;-60
2022/12/10 03:54:42;;;;;;;7.13;3.08;;;-0.50;99.90;;;;;;5047188;28;20048;-59
2022/12/10 03:57:09;;;;;;;7.90;3.50;;;-0.40;99.90;;;;;;5053568;28;20056;-60
2022/12/10 03:59:37;;;;;;;7.25;3.55;;;-0.40;99.90;;;;;;5058831;28;20438;-60
2022/12/10 04:02:05;;;;;;;10.30;3.40;;;-0.40;99.90;;;;;;5051513;28;20060;-60
2022/12/10 04:04:33;;;;;;;10.10;3.60;;;-0.30;99.90;;;;;;5050702;28;20381;-60
2022/12/10 04:07:00;;;;;;;7.40;3.90;;;-0.30;99.90;;;;;;5066163;28;20071;-59
2022/12/10 04:09:28;;;;;;;11.68;4.45;;;-0.30;99.90;;;;;;5057716;28;20052;-59
2022/12/10 04:11:59;;;;;;;9.27;4.72;;;-0.30;99.90;;;;;;5053155;28;20052;-59
2022/12/10 04:17:14;;;;;;;13.90;5.00;;;-0.30;99.90;;;;;;5063867;28;20047;-59
2022/12/10 04:19:42;;;;;;;6.75;3.83;;;-0.30;99.90;;;;;;5048618;28;20041;-60
2022/12/10 04:27:43;;;;;;;8.60;4.78;;;-0.30;99.90;;;;;;5055498;28;20144;-60
2022/12/10 04:30:12;;;;;;;8.93;5.18;;;-0.30;99.90;;;;;;5051436;28;20064;-59
2022/12/10 04:32:40;;;;;;;11.00;6.05;;;-0.40;99.90;;;;;;5055484;28;20055;-61
2022/12/10 04:35:08;;;;;;;10.90;5.72;;;-0.40;99.90;;;;;;5056497;28;20075;-63
2022/12/10 04:37:36;;;;;;;11.75;6.07;;;-0.40;99.90;;;;;;5050883;28;20059;-60
2022/12/10 04:40:05;;;;;;;11.98;5.85;;;-0.40;99.90;;;;;;5054247;28;20045;-59
2022/12/10 04:42:34;;;;;;;13.30;5.80;;;-0.50;99.90;;;;;;5052588;28;20517;-62
2022/12/10 04:45:01;;;;;;;13.65;7.07;;;-0.50;99.90;;;;;;5051848;28;20384;-61
2022/12/10 04:47:29;;;;;;;14.75;6.45;;;-0.50;99.90;;;;;;5058897;28;20064;-61
2022/12/10 04:49:57;;;;;;;11.98;6.20;;;-0.50;99.90;;;;;;5070398;28;20052;-62
2022/12/10 04:52:27;;;;;;;11.20;6.35;;;-0.50;99.90;;;;;;5053092;28;20064;-62
2022/12/10 04:54:55;;;;;;;14.30;5.90;;;-0.60;99.90;;;;;;5049774;28;20044;-62
2022/12/10 04:57:31;;;;;;;14.32;6.53;;;-0.60;99.90;;;;;;5050499;28;20424;-61
2022/12/10 05:00:00;;;;;;;11.03;6.10;;;-0.70;99.90;;;;;;5060346;28;20048;-61
2022/12/10 05:02:28;;;;;;;12.52;6.60;;;-0.70;99.90;;;;;;5050614;28;20295;-63
2022/12/10 05:04:55;;;;;;;14.70;7.55;;;-0.60;99.90;;;;;;5065975;28;20047;-60
2022/12/10 05:07:23;;;;;;;13.10;6.78;;;-0.70;99.90;;;;;;5063786;28;20045;-60
2022/12/10 05:09:51;;;;;;;12.45;6.50;;;-0.60;99.90;;;;;;5064888;28;20040;-61
2022/12/10 05:12:19;;;;;;;10.98;6.75;;;-0.50;99.90;;;;;;5052508;28;20389;-62
2022/12/10 05:14:46;;;;;;;12.50;5.55;;;-0.60;99.90;;;;;;5053857;28;20048;-63
2022/12/10 05:17:14;;;;;;;16.35;7.47;;;-0.50;99.90;;;;;;5069927;28;20502;-61
2022/12/10 05:19:42;;;;;;;14.95;7.35;;;-0.40;99.90;;;;;;5068309;28;20044;-60
2022/12/10 05:24:58;;;;;;;14.40;6.22;;;-0.40;99.90;;;;;;5068231;28;20404;-59
2022/12/10 05:27:30;;;;;;;12.82;6.03;;;-0.50;99.90;;;;;;5053745;28;20064;-59
2022/12/10 05:29:58;;;;;;;14.50;6.60;;;-0.50;99.90;;;;;;5048883;28;20049;-60
2022/12/10 05:32:26;;;;;;;13.93;6.28;;;-0.50;99.90;;;;;;5062477;28;20052;-60
2022/12/10 05:34:54;;;;;;;11.63;6.18;;;-0.60;99.90;;;;;;5056773;28;20055;-61
2022/12/10 05:37:21;;;;;;;10.27;5.38;;;-0.70;99.90;;;;;;5066420;28;20037;-60
2022/12/10 05:39:49;;;;;;;15.32;5.65;;;-0.70;99.90;;;;;;5066920;28;20041;-59
2022/12/10 05:42:20;;;;;;;12.52;5.80;;;-0.80;99.90;;;;;;5069531;28;20048;-59
2022/12/10 05:44:47;;;;;;;12.52;5.80;;;-0.90;99.90;;;;;;5067700;28;20056;-59
2022/12/10 05:47:21;;;;;;;8.35;4.93;;;-0.90;99.90;;;;;;5053584;28;20396;-60
2022/12/10 05:49:49;;;;;;;11.15;5.97;;;-1.00;99.90;;;;;;5064003;28;20037;-59
2022/12/10 05:52:22;;;;;;;11.45;4.88;;;-1.00;99.90;;;;;;5056968;28;20515;-61
2022/12/10 05:54:50;;;;;;;9.30;5.35;;;-1.10;99.90;;;;;;5054268;28;20049;-60
2022/12/10 05:57:17;;;;;;;15.75;6.05;;;-1.10;99.90;;;;;;5050231;28;20407;-61
2022/12/10 05:59:46;;;;;;;12.75;6.75;;;-1.10;99.90;;;;;;5051582;28;20037;-60
2022/12/10 06:02:17;;;;;;;12.45;6.28;;;-1.10;99.90;;;;;;5046280;28;22042;-60
2022/12/10 06:04:45;;;;;;;9.55;5.38;;;-1.10;99.90;;;;;;5054061;28;20044;-59
2022/12/10 06:07:16;;;;;;;14.00;7.05;;;-1.20;99.90;;;;;;5065818;28;20520;-59
2022/12/10 06:09:44;;;;;;;12.38;6.85;;;-1.20;99.90;;;;;;5061254;28;20048;-60
2022/12/10 06:12:12;;;;;;;10.13;5.82;;;-1.20;99.90;;;;;;5054667;28;20052;-60
2022/12/10 06:14:40;;;;;;;12.52;6.40;;;-1.20;99.90;;;;;;5067217;28;20059;-59
2022/12/10 06:17:08;;;;;;;14.38;7.32;;;-1.20;99.90;;;;;;5066068;28;20396;-59
2022/12/10 06:19:36;;;;;;;14.02;5.80;;;-1.20;99.90;;;;;;5065594;28;20072;-60
2022/12/10 06:22:11;;;;;;;13.57;5.72;;;-1.20;99.90;;;;;;5062959;28;20052;-62
2022/12/10 06:24:38;;;;;;;10.98;5.13;;;-1.20;99.90;;;;;;5056755;28;20052;-61
2022/12/10 06:27:07;;;;;;;7.55;4.78;;;-1.30;99.90;;;;;;5067118;28;20481;-61
2022/12/10 06:29:36;;;;;;;11.60;5.40;;;-1.30;99.90;;;;;;5055328;28;20043;-61
2022/12/10 06:32:03;;;;;;;13.02;5.72;;;-1.30;99.90;;;;;;5055679;28;20403;-59
2022/12/10 06:34:31;;;;;;;11.57;5.65;;;-1.30;99.90;;;;;;5061117;28;20059;-59
2022/12/10 06:37:00;;;;;;;13.73;5.55;;;-1.40;99.90;;;;;;5061396;28;20477;-60
2022/12/10 06:39:30;;;;;;;13.43;5.47;;;-1.40;99.90;;;;;;5056378;28;20048;-59
2022/12/10 06:41:58;;;;;;;11.13;5.43;;;-1.40;99.90;;;;;;5050337;28;20399;-59
2022/12/10 06:44:28;;;;;;;11.30;5.75;;;-1.40;99.90;;;;;;5061693;28;20052;-60
2022/12/10 06:46:56;;;;;;;12.05;5.65;;;-1.40;99.90;;;;;;5060897;28;20052;-60
2022/12/10 06:49:24;;;;;;;11.85;4.97;;;-1.50;99.90;;;;;;5063073;28;20045;-61
2022/12/10 06:51:54;;;;;;;10.02;4.88;;;-1.50;99.90;;;;;;5056728;28;20048;-61
2022/12/10 06:54:23;;;;;;;15.57;6.43;;;-1.50;99.90;;;;;;5056289;28;20412;-61
2022/12/10 06:56:51;;;;;;;11.43;5.43;;;-1.50;99.90;;;;;;5049892;28;20051;-60
2022/12/10 06:59:20;;;;;;;9.82;5.22;;;-1.50;99.90;;;;;;5053290;28;20392;-59
2022/12/10 07:01:48;;;;;;;11.88;5.60;;;-1.60;99.90;;;;;;5060538;28;20946;-61
2022/12/10 07:04:15;;;;;;;13.40;6.75;;;-1.60;99.90;;;;;;5059142;28;20048;-60
2022/12/10 07:06:43;;;;;;;11.48;6.30;;;-1.60;99.90;;;;;;5062374;28;20045;-59
2022/12/10 07:09:11;;;;;;;13.05;6.88;;;-1.70;99.90;;;;;;5065966;28;20044;-61
2022/12/10 07:11:42;;;;;;;14.90;7.25;;;-1.70;99.90;;;;;;5065298;28;20041;-59
2022/12/10 07:14:17;;;;;;;10.65;6.38;;;-1.70;99.90;;;;;;5063588;28;20515;-61
2022/12/10 07:16:45;;;;;;;13.13;6.15;;;-1.80;99.90;;;;;;5046995;28;20045;-61
2022/12/10 07:19:13;;;;;;;15.05;6.55;;;-1.80;99.90;;;;;;5041743;28;20656;-61
2022/12/10 07:21:42;;;;;;;15.73;6.40;;;-1.80;99.90;;;;;;5057686;28;20047;-60
2022/12/10 07:24:13;;;;;;;12.68;5.90;;;-1.80;99.90;;;;;;5063193;28;20045;-60
2022/12/10 07:26:45;;;;;;;11.48;6.32;;;-1.90;99.90;;;;;;5051748;28;20048;-61
2022/12/10 07:29:19;;;;;;;12.45;6.45;;;-1.80;99.90;;;;;;5051822;28;20045;-60
2022/12/10 07:31:51;;;;;;;13.00;7.32;;;-1.90;99.90;;;;;;5047969;28;20053;-59
2022/12/10 07:34:19;;;;;;;15.65;6.88;;;-1.90;99.90;;;;;;5052330;28;20053;-60
2022/12/10 07:36:47;;;;;;;17.73;7.22;;;-1.90;99.90;;;;;;5060815;28;20679;-59
2022/12/10 07:39:17;;;;;;;18.55;6.70;;;-2.00;99.90;;;;;;5065563;28;20045;-60
2022/12/10 07:41:57;;;;;;;14.32;7.03;;;-1.90;99.90;;;;;;5046412;28;20045;-60
2022/12/10 07:44:28;;;;;;;15.65;6.40;;;-2.00;99.90;;;;;;5062187;28;20032;-60
2022/12/10 07:46:59;;;;;;;14.70;7.43;;;-2.00;99.90;;;;;;5051759;28;20590;-60
2022/12/10 07:49:29;;;;;;;13.23;6.88;;;-2.00;99.90;;;;;;5059417;28;20045;-59
2022/12/10 07:52:00;;;;;;;22.48;8.98;;;-2.00;99.90;;;;;;5052989;28;20041;-60
2022/12/10 07:54:31;;;;;;;37.90;15.98;;;-2.00;99.90;;;;;;5062737;28;20514;-59
2022/12/10 07:57:00;;;;;;;24.58;12.80;;;-1.50;99.90;;;;;;5068534;28;20041;-60
2022/12/10 07:59:28;;;;;;;17.35;8.73;;;-2.00;99.90;;;;;;5065473;28;20048;-59
2022/12/10 08:01:55;;;;;;;20.85;8.45;;;-2.00;99.90;;;;;;5066998;28;20032;-59
2022/12/10 08:04:23;;;;;;;11.60;6.57;;;-1.30;99.90;;;;;;5058093;28;20048;-59
2022/12/10 08:06:55;;;;;;;13.40;6.13;;;-2.00;99.90;;;;;;5067738;28;20045;-60
2022/12/10 08:09:25;;;;;;;15.77;8.90;;;-2.00;99.90;;;;;;5066409;28;20052;-60
2022/12/10 08:11:53;;;;;;;11.23;6.05;;;-2.00;99.90;;;;;;5069654;28;20048;-59
2022/12/10 08:14:21;;;;;;;16.63;7.55;;;-2.00;99.90;;;;;;5060846;28;20384;-60
2022/12/10 08:16:49;;;;;;;15.70;7.32;;;-2.00;99.90;;;;;;5071095;28;20037;-60
2022/12/10 08:19:17;;;;;;;20.58;7.40;;;-2.00;99.90;;;;;;5048868;28;20500;-59
2022/12/10 08:21:51;;;;;;;16.40;7.38;;;-1.20;99.90;;;;;;5048542;28;20135;-60
2022/12/10 08:24:18;;;;;;;23.50;10.40;;;-1.90;99.90;;;;;;5058084;28;20045;-60
2022/12/10 08:26:49;;;;;;;16.35;7.50;;;-1.90;99.90;;;;;;5060341;28;20056;-59
2022/12/10 08:29:17;;;;;;;13.80;7.18;;;-1.90;99.90;;;;;;5057391;28;20036;-60
2022/12/10 08:31:45;;;;;;;16.90;7.85;;;-1.90;99.90;;;;;;5056722;28;20057;-59
2022/12/10 08:34:18;;;;;;;12.93;6.47;;;-1.80;99.90;;;;;;5057422;28;20048;-59
2022/12/10 08:36:46;;;;;;;16.63;7.45;;;-1.80;99.90;;;;;;5061196;28;20048;-60
2022/12/10 08:39:17;;;;;;;17.55;7.97;;;-1.80;99.90;;;;;;5065094;28;20483;-61
2022/12/10 08:41:45;;;;;;;14.18;7.53;;;-1.80;99.90;;;;;;5052023;28;20049;-60
2022/12/10 08:44:14;;;;;;;16.23;8.50;;;-1.70;99.90;;;;;;5062558;28;20404;-61
2022/12/10 08:46:41;;;;;;;15.90;7.55;;;-1.80;99.90;;;;;;5065195;28;20040;-60
2022/12/10 08:49:15;;;;;;;16.75;7.55;;;-1.70;99.90;;;;;;5062711;28;20052;-59
2022/12/10 08:51:43;;;;;;;16.33;7.55;;;-1.60;99.90;;;;;;5070459;28;20044;-59
2022/12/10 08:54:11;;;;;;;15.70;8.63;;;-1.60;99.90;;;;;;5061055;28;20049;-59
2022/12/10 08:56:39;;;;;;;18.45;8.13;;;-1.60;99.90;;;;;;5070159;28;20045;-59
2022/12/10 08:59:07;;;;;;;16.27;7.82;;;-1.50;99.90;;;;;;5057439;28;20432;-59
2022/12/10 09:01:35;;;;;;;17.38;7.85;;;-1.50;99.90;;;;;;5060557;28;20040;-60
2022/12/10 09:04:03;;;;;;;16.98;7.60;;;-1.40;99.90;;;;;;5058215;28;20075;-59
2022/12/10 09:06:31;;;;;;;13.95;7.80;;;-1.40;99.90;;;;;;5063590;28;20036;-59
2022/12/10 09:08:58;;;;;;;18.50;8.35;;;-1.40;99.90;;;;;;5059143;28;20052;-60
2022/12/10 09:11:32;;;;;;;13.68;7.78;;;-1.30;99.90;;;;;;5068716;28;20044;-59
2022/12/10 09:14:00;;;;;;;15.55;8.43;;;-1.30;99.90;;;;;;5058899;28;20500;-60
2022/12/10 09:16:33;;;;;;;17.00;8.95;;;-1.20;99.90;;;;;;5061671;28;20048;-59
2022/12/10 09:19:03;;;;;;;20.50;9.23;;;-1.00;99.90;;;;;;5059223;28;20048;-60
2022/12/10 09:21:31;;;;;;;23.88;11.38;;;-0.80;99.90;;;;;;5049515;28;20048;-59
2022/12/10 09:24:02;;;;;;;21.80;9.55;;;-0.80;99.90;;;;;;5062393;28;20228;-61
2022/12/10 09:26:32;;;;;;;17.10;8.38;;;-0.70;99.90;;;;;;5043419;28;20060;-60
2022/12/10 09:29:00;;;;;;;20.52;9.13;;;-0.40;99.90;;;;;;5045661;28;20360;-60
2022/12/10 09:31:28;;;;;;;19.92;8.85;;;-0.40;99.90;;;;;;5049620;28;20044;-60
2022/12/10 09:33:57;;;;;;;16.73;7.82;;;-0.30;99.90;;;;;;5048721;28;20049;-60
2022/12/10 09:36:25;;;;;;;13.88;7.35;;;-0.20;99.90;;;;;;5053203;28;20087;-59
2022/12/10 09:39:00;;;;;;;17.83;7.55;;;-0.10;99.90;;;;;;5054933;28;20036;-60
2022/12/10 09:42:00;;;;;;;13.65;8.05;;;0.00;99.90;;;;;;5047188;28;20064;-60
2022/12/10 09:44:46;;;;;;;18.60;6.80;;;0.10;99.90;;;;;;5052129;28;20052;-59
2022/12/10 09:47:15;;;;;;;14.00;8.07;;;0.20;99.90;;;;;;5057247;28;20048;-60
2022/12/10 09:50:18;;;;;;;15.75;8.45;;;0.20;99.90;;;;;;5048191;28;20062;-61
2022/12/10 09:52:48;;;;;;;14.48;7.45;;;0.20;99.90;;;;;;5058192;28;20049;-59
2022/12/10 09:55:19;;;;;;;14.05;8.10;;;0.20;99.90;;;;;;5051806;28;20261;-60
2022/12/10 09:57:53;;;;;;;14.00;7.28;;;0.30;99.90;;;;;;5053466;28;20049;-58
2022/12/10 10:00:35;;;;;;;17.30;8.20;;;0.30;99.90;;;;;;5051663;28;20041;-61
2022/12/10 10:03:04;;;;;;;14.95;7.65;;;0.30;99.90;;;;;;5046747;28;20063;-60
2022/12/10 10:05:40;;;;;;;14.15;7.57;;;0.30;99.90;;;;;;5038102;28;20063;-60
2022/12/10 10:08:32;;;;;;;17.48;8.07;;;0.40;99.90;;;;;;5049685;28;20061;-61
2022/12/10 10:11:01;;;;;;;15.40;8.10;;;0.40;99.90;;;;;;5053946;28;20781;-61
2022/12/10 10:13:34;;;;;;;17.67;9.05;;;0.50;99.90;;;;;;5055103;28;20048;-62
2022/12/10 10:16:20;;;;;;;18.30;7.57;;;0.50;99.90;;;;;;5049462;28;20582;-62
2022/12/10 10:19:01;;;;;;;13.88;7.72;;;0.60;99.90;;;;;;5050535;28;20048;-61
2022/12/10 10:21:35;;;;;;;16.02;7.25;;;0.60;99.90;;;;;;5045047;28;20396;-62
2022/12/10 10:24:04;;;;;;;15.88;8.48;;;0.60;99.90;;;;;;5051324;28;20480;-60
2022/12/10 10:26:38;;;;;;;13.65;7.68;;;0.70;99.90;;;;;;5049114;28;20049;-59
2022/12/10 10:29:12;;;;;;;11.48;7.20;;;0.70;99.90;;;;;;5043037;28;20475;-59
2022/12/10 10:31:44;;;;;;;12.88;6.35;;;0.80;99.90;;;;;;5051630;28;20040;-60
2022/12/10 10:34:21;;;;;;;13.60;6.88;;;0.80;99.90;;;;;;5025768;28;20535;-60
2022/12/10 10:37:02;;;;;;;11.63;6.13;;;1.00;99.90;;;;;;5048095;28;20511;-60
2022/12/10 10:39:32;;;;;;;8.52;5.40;;;1.10;99.90;;;;;;5050700;28;20052;-59
2022/12/10 10:42:07;;;;;;;16.88;11.02;;;1.20;99.90;;;;;;5053492;28;20036;-60
2022/12/10 10:44:37;;;;;;;16.38;8.43;;;1.30;99.90;;;;;;5052014;28;20061;-61
2022/12/10 10:47:26;;;;;;;10.57;6.78;;;1.30;99.90;;;;;;5053747;28;20045;-59
2022/12/10 10:50:04;;;;;;;12.77;7.22;;;1.40;99.90;;;;;;5053661;28;20055;-60
2022/12/10 10:52:41;;;;;;;13.52;6.03;;;1.40;99.90;;;;;;5059493;28;20044;-60
2022/12/10 10:55:35;;;;;;;10.05;5.30;;;1.40;99.90;;;;;;5050589;28;20051;-59
2022/12/10 10:58:20;;;;;;;9.95;4.45;;;1.50;99.90;;;;;;5052941;28;20056;-60
2022/12/10 11:01:00;;;;;;;4.85;3.08;;;1.70;99.90;;;;;;5062343;28;20048;-59
2022/12/10 11:03:34;;;;;;;7.30;3.95;;;2.10;99.90;;;;;;5064448;28;20037;-60
2022/12/10 11:06:08;;;;;;;6.00;3.40;;;2.00;99.90;;;;;;5052840;28;20045;-60
2022/12/10 11:08:38;;;;;;;6.35;2.58;;;2.30;99.90;;;;;;5059371;28;20063;-60
2022/12/10 11:11:29;;;;;;;13.85;6.05;;;2.50;99.90;;;;;;5055173;28;20044;-61
2022/12/10 11:14:31;;;;;;;7.78;5.15;;;2.80;99.90;;;;;;5052363;28;20045;-61
2022/12/10 11:17:09;;;;;;;12.50;6.43;;;3.10;99.90;;;;;;5044109;28;20045;-59
2022/12/10 11:19:54;;;;;;;8.02;4.78;;;3.30;99.90;;;;;;5045271;28;20492;-62
2022/12/10 11:22:33;;;;;;;7.90;5.20;;;3.50;99.90;;;;;;5047296;28;20049;-62
2022/12/10 11:25:01;;;;;;;7.38;3.75;;;3.60;99.90;;;;;;5059712;28;20047;-61
2022/12/10 11:27:35;;;;;;;3.75;2.33;;;3.60;99.90;;;;;;5059066;28;20048;-62
2022/12/10 11:30:29;;;;;;;3.35;2.20;;;3.60;99.90;;;;;;5058689;28;20049;-61
2022/12/10 11:33:15;;;;;;;11.25;2.33;;;3.60;99.90;;;;;;5053922;28;20052;-60
2022/12/10 11:35:46;;;;;;;5.13;2.38;;;3.40;99.90;;;;;;5051249;28;20374;-59
2022/12/10 11:38:37;;;;;;;5.65;2.65;;;3.30;99.90;;;;;;5052490;28;20044;-60
2022/12/10 11:41:32;;;;;;;3.88;2.55;;;3.30;99.90;;;;;;5049305;28;20102;-60
2022/12/10 11:44:08;;;;;;;4.50;2.35;;;3.40;99.90;;;;;;5062199;28;20057;-59
2022/12/10 11:47:15;;;;;;;3.53;2.08;;;3.70;99.90;;;;;;5055614;28;20040;-61
2022/12/10 11:50:06;;;;;;;8.48;2.85;;;3.90;99.90;;;;;;5054242;28;20053;-59
2022/12/10 11:52:52;;;;;;;4.65;2.95;;;3.90;99.90;;;;;;5061620;28;20041;-59
2022/12/10 11:55:49;;;;;;;5.88;2.88;;;3.80;99.90;;;;;;5050757;28;20041;-61
2022/12/10 11:58:49;;;;;;;4.97;2.67;;;3.60;99.90;;;;;;5049935;28;20508;-59
2022/12/10 12:01:16;;;;;;;4.65;2.42;;;3.40;99.90;;;;;;5030477;28;20055;-60
2022/12/10 12:04:03;;;;;;;5.65;2.67;;;3.50;99.90;;;;;;5063005;28;20064;-60
2022/12/10 12:06:52;;;;;;;2.63;2.38;;;3.90;99.90;;;;;;5065143;28;20040;-60
2022/12/10 12:10:07;;;;;;;8.15;3.00;;;3.60;99.90;;;;;;5061350;28;20601;-59
2022/12/10 12:13:09;;;;;;;7.70;2.60;;;5.10;99.90;;;;;;5039083;28;20431;-60
2022/12/10 12:15:47;;;;;;;7.20;2.58;;;5.30;99.90;;;;;;5050230;28;20053;-60
2022/12/10 12:18:40;;;;;;;5.60;2.72;;;4.90;99.90;;;;;;5058904;28;20057;-59
2022/12/10 12:21:11;;;;;;;3.58;2.38;;;4.80;99.90;;;;;;5049687;28;20059;-62
2022/12/10 12:24:01;;;;;;;4.47;2.50;;;4.60;99.90;;;;;;5052886;28;20412;-62
2022/12/10 12:26:38;;;;;;;4.38;2.33;;;4.30;99.90;;;;;;5059671;28;20064;-61
2022/12/10 12:29:25;;;;;;;5.22;2.95;;;4.00;99.90;;;;;;5046322;28;20067;-61
2022/12/10 12:32:16;;;;;;;4.05;2.70;;;4.20;99.90;;;;;;5060410;28;20420;-60
2022/12/10 12:34:47;;;;;;;3.50;2.10;;;4.50;99.90;;;;;;5055361;28;20048;-60
2022/12/10 12:37:18;;;;;;;4.20;1.95;;;4.60;99.90;;;;;;5050841;28;20048;-61
2022/12/10 12:40:02;;;;;;;7.10;2.25;;;5.20;99.90;;;;;;5054089;28;20100;-59
2022/12/10 12:42:38;;;;;;;5.38;1.90;;;6.00;99.90;;;;;;5059653;28;20052;-60
2022/12/10 12:45:18;;;;;;;3.53;2.20;;;6.50;99.90;;;;;;5062538;28;20066;-60
2022/12/10 12:47:51;;;;;;;3.70;2.50;;;6.70;99.90;;;;;;5057417;28;20049;-60
2022/12/10 12:50:39;;;;;;;3.42;1.73;;;6.60;99.90;;;;;;5061815;28;20069;-60
2022/12/10 12:53:12;;;;;;;3.58;2.40;;;6.30;99.90;;;;;;5053403;28;20051;-59
2022/12/10 12:55:57;;;;;;;3.33;1.95;;;6.30;99.90;;;;;;5054496;28;20183;-59
2022/12/10 12:58:53;;;;;;;7.55;2.83;;;6.60;99.90;;;;;;5050154;28;20053;-58
2022/12/10 13:01:37;;;;;;;3.97;1.55;;;7.10;99.90;;;;;;5048801;28;20523;-58
2022/12/10 13:04:05;;;;;;;5.45;1.77;;;7.20;99.90;;;;;;5054256;28;20060;-59
2022/12/10 13:06:38;;;;;;;3.55;1.67;;;7.50;99.90;;;;;;5054514;28;20057;-60
2022/12/10 13:09:12;;;;;;;6.25;2.60;;;8.00;99.90;;;;;;5051941;28;20057;-60
2022/12/10 13:11:43;;;;;;;5.20;2.55;;;8.60;99.90;;;;;;5040765;28;20056;-59
2022/12/10 13:14:29;;;;;;;4.53;1.65;;;9.10;99.90;;;;;;5057173;28;20047;-60
2022/12/10 13:17:08;;;;;;;3.95;2.17;;;9.40;99.90;;;;;;5053860;28;20048;-59
2022/12/10 13:19:36;;;;;;;4.85;1.77;;;9.40;99.90;;;;;;5061779;28;20047;-59
2022/12/10 13:22:11;;;;;;;5.18;2.00;;;9.00;99.90;;;;;;5050993;28;20040;-58
2022/12/10 13:24:44;;;;;;;4.70;2.00;;;8.50;99.90;;;;;;5056134;28;20040;-59
2022/12/10 13:27:26;;;;;;;5.15;2.50;;;8.10;99.90;;;;;;5062143;28;20033;-59
2022/12/10 13:30:03;;;;;;;4.07;2.15;;;7.50;99.90;;;;;;5050261;28;20508;-59